createdAt,value
2023-01-20T00:00:19.755Z,93180.00
2023-01-20T00:04:24.596Z,93183.00
2023-01-20T00:08:29.218Z,93164.00
2023-01-20T00:12:32.959Z,93166.00
2023-01-20T00:16:36.414Z,93167.00
2023-01-20T00:21:02.874Z,93180.00
2023-01-20T00:25:06.897Z,93173.00
2023-01-20T00:29:10.961Z,93166.00
2023-01-20T00:33:16.702Z,93177.00
2023-01-20T00:37:21.559Z,93182.00
2023-01-20T00:41:26.248Z,93178.00
2023-01-20T00:45:29.798Z,93183.00
2023-01-20T00:49:37.821Z,93181.00
2023-01-20T00:53:42.973Z,93192.00
2023-01-20T00:58:51.496Z,93199.00
2023-01-20T01:02:55.206Z,93191.00
2023-01-20T01:07:02.983Z,93197.00
2023-01-20T01:11:08.580Z,93200.00
2023-01-20T01:15:37.787Z,93208.00
2023-01-20T01:19:41.263Z,93216.00
2023-01-20T01:23:45.514Z,93226.00
2023-01-20T01:27:50.612Z,93223.00
2023-01-20T01:31:54.039Z,93230.00
2023-01-20T01:35:58.019Z,93235.00
2023-01-20T01:40:29.524Z,93254.00
2023-01-20T01:44:35.896Z,93250.00
2023-01-20T01:48:43.043Z,93264.00
2023-01-20T01:52:50.083Z,93268.00
2023-01-20T01:56:54.245Z,93269.00
2023-01-20T02:00:59.988Z,93258.00
2023-01-20T02:05:03.899Z,93270.00
2023-01-20T02:09:21.289Z,93265.00
2023-01-20T02:13:26.864Z,93270.00
2023-01-20T02:17:33.973Z,93282.00
2023-01-20T02:22:13.392Z,93275.00
2023-01-20T02:26:48.569Z,93284.00
2023-01-20T02:31:22.372Z,93272.00
2023-01-20T02:35:36.942Z,93280.00
2023-01-20T02:39:54.611Z,93277.00
2023-01-20T02:44:41.702Z,93268.00
2023-01-20T02:48:49.417Z,93260.00
2023-01-20T02:52:56.374Z,93266.00
2023-01-20T02:57:27.442Z,93266.00
2023-01-20T03:01:35.875Z,93264.00
2023-01-20T03:05:53.196Z,93254.00
2023-01-20T03:10:00.112Z,93260.00
2023-01-20T03:14:07.306Z,93236.00
2023-01-20T03:18:25.690Z,93251.00
2023-01-20T03:22:30.549Z,93237.00
2023-01-20T03:26:35.493Z,93233.00
2023-01-20T03:30:41.405Z,93245.00
2023-01-20T03:34:46.465Z,93249.00
2023-01-20T03:38:50.854Z,93247.00
2023-01-20T03:43:03.198Z,93243.00
2023-01-20T03:47:34.606Z,93234.00
2023-01-20T03:51:53.172Z,93243.00
2023-01-20T03:56:01.550Z,93240.00
2023-01-20T04:00:09.698Z,93242.00
2023-01-20T04:04:34.329Z,93246.00
2023-01-20T04:09:14.941Z,93235.00
2023-01-20T04:13:19.773Z,93242.00
2023-01-20T04:17:27.720Z,93243.00
2023-01-20T04:22:01.595Z,93245.00
2023-01-20T04:26:06.506Z,93234.00
2023-01-20T04:30:14.090Z,93234.00
2023-01-20T04:34:25.010Z,93243.00
2023-01-20T04:38:28.395Z,93233.00
2023-01-20T04:42:31.860Z,93228.00
2023-01-20T04:46:37.169Z,93235.00
2023-01-20T04:50:42.558Z,93234.00
2023-01-20T04:54:45.922Z,93245.00
2023-01-20T04:58:49.584Z,93244.00
2023-01-20T05:02:54.460Z,93261.00
2023-01-20T05:06:57.990Z,93264.00
2023-01-20T05:11:01.407Z,93272.00
2023-01-20T05:15:21.317Z,93286.00
2023-01-20T05:19:26.189Z,93294.00
2023-01-20T05:23:29.626Z,93300.00
2023-01-20T05:27:36.100Z,93304.00
2023-01-20T05:31:43.354Z,93310.00
2023-01-20T05:35:48.745Z,93315.00
2023-01-20T05:39:52.237Z,93312.00
2023-01-20T05:43:55.904Z,93340.00
2023-01-20T05:48:00.617Z,93348.00
2023-01-20T05:52:05.739Z,93364.00
2023-01-20T05:56:12.256Z,93349.00
2023-01-20T06:00:18.976Z,93369.00
2023-01-20T06:04:22.459Z,93378.00
2023-01-20T06:08:27.348Z,93382.00
2023-01-20T06:12:30.822Z,93393.00
2023-01-20T06:17:00.209Z,93397.00
2023-01-20T06:21:30.319Z,93400.00
2023-01-20T06:26:05.354Z,93412.00
2023-01-20T06:30:10.166Z,93408.00
2023-01-20T06:34:39.080Z,93415.00
2023-01-20T06:38:42.464Z,93431.00
2023-01-20T06:42:47.328Z,93435.00
2023-01-20T06:46:52.023Z,93419.00
2023-01-20T06:50:56.066Z,93441.00
2023-01-20T06:54:59.518Z,93440.00
2023-01-20T06:59:04.433Z,93439.00
2023-01-20T07:03:18.374Z,93421.00
2023-01-20T07:07:21.766Z,93419.00
2023-01-20T07:11:26.645Z,93410.00
2023-01-20T07:15:31.460Z,93417.00
2023-01-20T07:19:34.854Z,93425.00
2023-01-20T07:23:41.837Z,93422.00
2023-01-20T07:27:45.223Z,93417.00
2023-01-20T07:31:50.234Z,93418.00
2023-01-20T07:36:10.119Z,93404.00
2023-01-20T07:40:14.356Z,93402.00
2023-01-20T07:44:18.511Z,93389.00
2023-01-20T07:48:23.591Z,93395.00
2023-01-20T07:52:46.367Z,93407.00
2023-01-20T07:56:49.901Z,93388.00
2023-01-20T08:00:55.846Z,93390.00
2023-01-20T08:05:00.879Z,93395.00
2023-01-20T08:09:04.779Z,93402.00
2023-01-20T08:13:11.689Z,93414.00
2023-01-20T08:17:15.118Z,93423.00
2023-01-20T08:21:22.426Z,93429.00
2023-01-20T08:25:27.275Z,93423.00
2023-01-20T08:29:33.767Z,93430.00
2023-01-20T08:33:46.901Z,93435.00
2023-01-20T08:37:51.868Z,93444.00
2023-01-20T08:41:55.499Z,93464.00
2023-01-20T08:46:25.111Z,93482.00
2023-01-20T08:50:28.585Z,93465.00
2023-01-20T08:54:34.727Z,93460.00
2023-01-20T08:59:00.313Z,93488.00
2023-01-20T09:03:04.060Z,93500.00
2023-01-20T09:07:07.914Z,93504.00
2023-01-20T09:11:40.174Z,93502.00
2023-01-20T09:15:43.802Z,93513.00
2023-01-20T09:19:47.267Z,93526.00
2023-01-20T09:23:50.717Z,93517.00
2023-01-20T09:28:03.265Z,93530.00
2023-01-20T09:32:06.808Z,93537.00
2023-01-20T09:36:12.390Z,93539.00
2023-01-20T09:41:07.059Z,93547.00
2023-01-20T09:45:26.509Z,93554.00
2023-01-20T09:49:59.983Z,93549.00
2023-01-20T09:54:08.224Z,93560.00
2023-01-20T09:58:31.933Z,93564.00
2023-01-20T10:02:38.618Z,93569.00
2023-01-20T10:06:44.994Z,93570.00
2023-01-20T10:11:15.746Z,93564.00
2023-01-20T10:15:26.706Z,93565.00
2023-01-20T10:19:38.746Z,93561.00
2023-01-20T10:28:59.765Z,93558.00
2023-01-20T10:37:53.594Z,93547.00
2023-01-20T10:42:04.620Z,93535.00
2023-01-20T10:46:25.901Z,93546.00
2023-01-20T10:50:47.242Z,93535.00
2023-01-20T10:54:59.744Z,93526.00
2023-01-20T11:03:43.269Z,93535.00
2023-01-20T11:07:47.912Z,93532.00
2023-01-20T11:11:53.641Z,93529.00
2023-01-20T11:16:01.085Z,93523.00
2023-01-20T11:20:07.825Z,93538.00
2023-01-20T11:24:37.518Z,93529.00
2023-01-20T11:28:53.450Z,93522.00
2023-01-20T11:33:10.466Z,93529.00
2023-01-20T11:37:22.094Z,93527.00
2023-01-20T11:41:32.176Z,93519.00
2023-01-20T11:45:38.460Z,93508.00
2023-01-20T11:49:46.523Z,93513.00
2023-01-20T11:53:50.071Z,93507.00
2023-01-20T11:58:06.723Z,93517.00
2023-01-20T12:02:29.249Z,93515.00
2023-01-20T12:06:36.017Z,93527.00
2023-01-20T12:11:08.830Z,93514.00
2023-01-20T12:15:16.720Z,93521.00
2023-01-20T12:19:27.681Z,93517.00
2023-01-20T12:23:55.189Z,93516.00
2023-01-20T12:28:06.925Z,93509.00
2023-01-20T12:32:10.462Z,93521.00
2023-01-20T12:36:53.471Z,93533.00
2023-01-20T12:41:02.578Z,93524.00
2023-01-20T12:45:30.872Z,93523.00
2023-01-20T12:49:58.715Z,93541.00
2023-01-20T12:54:47.428Z,93534.00
2023-01-20T12:59:18.063Z,93545.00
2023-01-20T13:04:06.322Z,93542.00
2023-01-20T13:13:06.278Z,93552.00
2023-01-20T13:17:31.256Z,93554.00
2023-01-20T13:21:35.573Z,93566.00
2023-01-20T13:25:50.355Z,93570.00
2023-01-20T13:29:57.516Z,93565.00
2023-01-20T13:35:03.630Z,93576.00
2023-01-20T13:39:40.708Z,93572.00
2023-01-20T13:44:25.947Z,93576.00
2023-01-20T13:48:31.421Z,93558.00
2023-01-20T13:53:03.658Z,93578.00
2023-01-20T13:58:14.528Z,93579.00
2023-01-20T14:02:19.093Z,93569.00
2023-01-20T14:06:26.325Z,93588.00
2023-01-20T14:17:12.745Z,93593.00
2023-01-20T14:21:21.458Z,93577.00
2023-01-20T14:26:13.389Z,93580.00
2023-01-20T14:30:25.352Z,93586.00
2023-01-20T14:34:32.634Z,93589.00
2023-01-20T14:44:38.704Z,93594.00
2023-01-20T14:48:43.916Z,93613.00
2023-01-20T14:53:15.113Z,93610.00
2023-01-20T14:57:46.760Z,93614.00
2023-01-20T15:02:18.671Z,93619.00
2023-01-20T15:06:24.268Z,93637.00
2023-01-20T15:10:27.745Z,93631.00
2023-01-20T15:15:00.122Z,93639.00
2023-01-20T15:19:47.064Z,93635.00
2023-01-20T15:23:53.669Z,93633.00
2023-01-20T15:27:58.626Z,93640.00
2023-01-20T15:32:12.078Z,93628.00
2023-01-20T15:36:29.414Z,93645.00
2023-01-20T15:40:35.926Z,93663.00
2023-01-20T15:44:53.979Z,93652.00
2023-01-20T15:48:57.518Z,93652.00
2023-01-20T15:53:01.088Z,93658.00
2023-01-20T15:57:31.316Z,93677.00
2023-01-20T16:01:34.909Z,93669.00
2023-01-20T16:05:38.366Z,93682.00
2023-01-20T16:09:54.369Z,93682.00
2023-01-20T16:13:59.353Z,93684.00
2023-01-20T16:18:16.132Z,93688.00
2023-01-20T16:22:19.593Z,93699.00
2023-01-20T16:26:25.812Z,93692.00
2023-01-20T16:30:57.816Z,93695.00
2023-01-20T16:36:03.141Z,93702.00
2023-01-20T16:40:07.910Z,93704.00
2023-01-20T16:44:11.456Z,93701.00
2023-01-20T16:48:23.807Z,93708.00
2023-01-20T16:52:27.210Z,93713.00
2023-01-20T16:56:32.361Z,93722.00
2023-01-20T17:01:25.772Z,93716.00
2023-01-20T17:05:30.836Z,93724.00
2023-01-20T17:09:38.493Z,93726.00
2023-01-20T17:13:41.970Z,93719.00
2023-01-20T17:17:49.499Z,93720.00
2023-01-20T17:22:03.756Z,93722.00
2023-01-20T17:26:08.610Z,93742.00
2023-01-20T17:30:26.868Z,93742.00
2023-01-20T17:34:30.407Z,93746.00
2023-01-20T17:38:39.863Z,93743.00
2023-01-20T17:43:43.217Z,93747.00
2023-01-20T17:47:46.692Z,93758.00
2023-01-20T17:51:51.399Z,93767.00
2023-01-20T17:56:10.848Z,93761.00
2023-01-20T18:00:18.703Z,93765.00
2023-01-20T18:04:22.441Z,93765.00
2023-01-20T18:08:26.325Z,93767.00
2023-01-20T18:12:31.175Z,93768.00
2023-01-20T18:16:36.085Z,93772.00
2023-01-20T18:20:41.731Z,93775.00
2023-01-20T18:24:45.654Z,93763.00
2023-01-20T18:28:51.081Z,93771.00
2023-01-20T18:33:25.600Z,93767.00
2023-01-20T18:37:29.049Z,93773.00
2023-01-20T18:41:36.485Z,93768.00
2023-01-20T18:45:42.458Z,93764.00
2023-01-20T18:49:45.989Z,93768.00
2023-01-20T18:58:28.810Z,93771.00
2023-01-20T19:02:34.466Z,93771.00
2023-01-20T19:06:43.338Z,93765.00
2023-01-20T19:10:46.882Z,93767.00
2023-01-20T19:14:51.404Z,93779.00
2023-01-20T19:18:57.778Z,93772.00
2023-01-20T19:23:01.274Z,93772.00
2023-01-20T19:27:05.409Z,93765.00
2023-01-20T19:31:34.988Z,93770.00
2023-01-20T19:35:42.080Z,93777.00
2023-01-20T19:39:45.673Z,93771.00
2023-01-20T19:43:49.176Z,93760.00
2023-01-20T19:47:52.699Z,93776.00
2023-01-20T19:51:59.694Z,93775.00
2023-01-20T19:56:03.598Z,93778.00
2023-01-20T20:00:08.362Z,93771.00
2023-01-20T20:04:39.603Z,93764.00
2023-01-20T20:09:07.199Z,93773.00
2023-01-20T20:13:10.616Z,93762.00
2023-01-20T20:17:27.175Z,93768.00
2023-01-20T20:21:30.846Z,93767.00
2023-01-20T20:25:37.558Z,93768.00
2023-01-20T20:29:40.984Z,93772.00
2023-01-20T20:33:46.868Z,93765.00
2023-01-20T20:37:50.305Z,93775.00
2023-01-20T20:48:27.709Z,93767.00
2023-01-20T20:52:31.993Z,93772.00
2023-01-20T20:56:37.704Z,93769.00
2023-01-20T21:00:41.173Z,93767.00
2023-01-20T21:04:46.168Z,93783.00
2023-01-20T21:09:14.652Z,93774.00
2023-01-20T21:13:20.292Z,93762.00
2023-01-20T21:17:23.667Z,93778.00
2023-01-20T21:21:29.593Z,93779.00
2023-01-20T21:25:33.119Z,93793.00
2023-01-20T21:29:36.619Z,93787.00
2023-01-20T21:33:40.474Z,93789.00
2023-01-20T21:37:52.635Z,93804.00
2023-01-20T21:42:01.360Z,93809.00
2023-01-20T21:46:04.813Z,93812.00
2023-01-20T21:55:22.768Z,93815.00
2023-01-20T21:59:26.622Z,93816.00
2023-01-20T22:03:30.017Z,93829.00
2023-01-20T22:07:33.572Z,93827.00
2023-01-20T22:11:38.425Z,93835.00
2023-01-20T22:15:41.836Z,93835.00
2023-01-20T22:20:08.348Z,93839.00
2023-01-20T22:24:12.380Z,93843.00
2023-01-20T22:28:17.226Z,93836.00
2023-01-20T22:32:20.742Z,93833.00
2023-01-20T22:36:25.392Z,93836.00
2023-01-20T22:40:28.776Z,93832.00
2023-01-20T22:44:33.674Z,93838.00
2023-01-20T22:48:37.091Z,93836.00
2023-01-20T22:52:40.606Z,93846.00
2023-01-20T22:56:44.018Z,93839.00
2023-01-20T23:00:48.986Z,93843.00
2023-01-20T23:04:53.384Z,93845.00
2023-01-20T23:08:56.922Z,93821.00
2023-01-20T23:13:56.692Z,93832.00
2023-01-20T23:18:01.716Z,93838.00
2023-01-20T23:22:05.244Z,93843.00
2023-01-20T23:26:17.567Z,93825.00
2023-01-20T23:30:21.336Z,93813.00
2023-01-20T23:34:26.300Z,93832.00
2023-01-20T23:39:30.717Z,93832.00
2023-01-20T23:44:24.385Z,93816.00
2023-01-20T23:48:28.714Z,93820.00
2023-01-20T23:52:35.750Z,93819.00
2023-01-20T23:56:39.124Z,93815.00
